Time;durP1;ratioP1;P1;durP2;ratioP2;P2;SDS_P1;SDS_P2;PMS_P1;PMS_P2;Temp;Humidity;BMP_temperature;BMP_pressure;BME280_temperature;BME280_humidity;BME280_pressure;Samples;Min_cycle;Max_cycle;Signal;HPM_P1;HPM_P2
2022/08/27 00:00:42;;;;;;;8.38;6.22;;;18.10;99.90;;;;;;5043653;28;20231;-73
2022/08/27 00:03:08;;;;;;;9.15;6.80;;;18.10;99.90;;;;;;5044141;28;20180;-72
2022/08/27 00:05:35;;;;;;;7.45;6.60;;;18.00;99.90;;;;;;5045480;28;20183;-73
2022/08/27 00:08:03;;;;;;;7.50;6.75;;;18.00;99.90;;;;;;5029598;28;20379;-73
2022/08/27 00:10:29;;;;;;;6.65;6.05;;;18.10;99.90;;;;;;5047069;28;20184;-73
2022/08/27 00:12:55;;;;;;;6.22;5.75;;;18.00;99.90;;;;;;5039398;28;20655;-73
2022/08/27 00:15:22;;;;;;;6.90;6.22;;;18.00;99.90;;;;;;5043333;28;20563;-73
2022/08/27 00:17:48;;;;;;;7.97;6.28;;;17.90;99.90;;;;;;5042734;28;20272;-73
2022/08/27 00:20:17;;;;;;;9.48;6.47;;;17.80;99.90;;;;;;5029654;28;20176;-73
2022/08/27 00:22:42;;;;;;;7.72;7.00;;;17.80;99.90;;;;;;5044156;28;20180;-73
2022/08/27 00:25:09;;;;;;;9.30;6.85;;;17.70;99.90;;;;;;5030885;28;20647;-73
2022/08/27 00:27:35;;;;;;;8.50;6.57;;;17.60;99.90;;;;;;5044781;28;20200;-73
2022/08/27 00:30:01;;;;;;;8.18;7.00;;;17.60;99.90;;;;;;5043207;28;20177;-72
2022/08/27 00:32:27;;;;;;;8.27;6.70;;;17.50;99.90;;;;;;5044248;28;20187;-72
2022/08/27 00:34:52;;;;;;;6.75;6.22;;;17.50;99.90;;;;;;5042001;28;20186;-74
2022/08/27 00:37:19;;;;;;;11.48;7.25;;;17.50;99.90;;;;;;5043936;28;20286;-74
2022/08/27 00:39:44;;;;;;;7.50;6.70;;;17.40;99.90;;;;;;5042671;28;20211;-74
2022/08/27 00:42:11;;;;;;;7.50;6.80;;;17.40;99.90;;;;;;5030437;28;20633;-73
2022/08/27 00:44:38;;;;;;;10.38;7.25;;;17.40;99.90;;;;;;5033636;28;20208;-73
2022/08/27 00:47:11;;;;;;;6.78;6.20;;;17.30;99.90;;;;;;5034551;28;20172;-73
2022/08/27 00:49:45;;;;;;;8.13;7.43;;;17.30;99.90;;;;;;5031610;28;20173;-73
2022/08/27 00:52:22;;;;;;;8.20;7.47;;;17.30;99.90;;;;;;5035840;28;20239;-73
2022/08/27 00:54:52;;;;;;;8.20;7.40;;;17.40;99.90;;;;;;5032530;28;20173;-73
2022/08/27 00:57:18;;;;;;;11.82;7.90;;;17.40;99.90;;;;;;5031397;28;20572;-74
2022/08/27 00:59:44;;;;;;;7.47;6.70;;;17.40;99.90;;;;;;5035534;28;20172;-74
2022/08/27 01:02:19;;;;;;;7.90;7.20;;;17.40;99.90;;;;;;5031995;28;20191;-75
2022/08/27 01:04:59;;;;;;;8.02;7.20;;;17.40;99.90;;;;;;5037489;28;20181;-73
2022/08/27 01:07:27;;;;;;;7.60;6.90;;;17.40;99.90;;;;;;5039496;28;20196;-72
2022/08/27 01:09:56;;;;;;;8.52;7.32;;;17.40;99.90;;;;;;5043109;28;20181;-72
2022/08/27 01:12:22;;;;;;;8.32;6.93;;;17.40;99.90;;;;;;5022836;28;20188;-72
2022/08/27 01:14:48;;;;;;;8.70;7.65;;;17.40;99.90;;;;;;5040227;28;20186;-74
2022/08/27 01:17:15;;;;;;;7.50;6.80;;;17.40;99.90;;;;;;5039843;28;20231;-72
2022/08/27 01:19:55;;;;;;;8.05;7.13;;;17.40;99.90;;;;;;5038907;28;20172;-74
2022/08/27 01:22:21;;;;;;;7.88;7.10;;;17.40;99.90;;;;;;5036465;28;20514;-71
2022/08/27 01:24:49;;;;;;;8.10;7.32;;;17.30;99.90;;;;;;5048057;28;20179;-72
2022/08/27 01:27:18;;;;;;;10.10;7.45;;;17.30;99.90;;;;;;5034564;28;20183;-72
2022/08/27 01:29:45;;;;;;;9.02;8.13;;;17.30;99.90;;;;;;5033149;28;20196;-74
2022/08/27 01:32:15;;;;;;;8.27;7.40;;;17.30;99.90;;;;;;5047012;28;20187;-72
2022/08/27 01:34:41;;;;;;;9.35;8.23;;;17.30;99.90;;;;;;5033923;28;20176;-72
2022/08/27 01:37:07;;;;;;;10.07;7.90;;;17.20;99.90;;;;;;5031097;28;20216;-73
2022/08/27 01:39:35;;;;;;;9.18;8.38;;;17.20;99.90;;;;;;5042306;28;20632;-72
2022/08/27 01:42:12;;;;;;;9.90;7.45;;;17.20;99.90;;;;;;5041609;28;20180;-73
2022/08/27 01:44:46;;;;;;;10.15;8.18;;;17.30;99.90;;;;;;5039516;28;20179;-73
2022/08/27 01:47:12;;;;;;;9.75;8.07;;;17.30;99.90;;;;;;5030139;28;20183;-73
2022/08/27 01:49:37;;;;;;;9.60;8.23;;;17.30;99.90;;;;;;5039166;28;20176;-73
2022/08/27 01:52:04;;;;;;;8.85;8.05;;;17.30;99.90;;;;;;5036840;28;20191;-73
2022/08/27 01:54:30;;;;;;;10.10;8.70;;;17.40;99.90;;;;;;5039573;28;20186;-73
2022/08/27 01:56:56;;;;;;;9.57;8.63;;;17.40;99.90;;;;;;5038792;28;20220;-72
2022/08/27 01:59:22;;;;;;;9.52;7.72;;;17.40;99.90;;;;;;5043026;28;20229;-73
2022/08/27 02:01:47;;;;;;;8.95;7.78;;;17.40;99.90;;;;;;5039074;28;20259;-73
2022/08/27 02:04:13;;;;;;;11.20;8.13;;;17.40;99.90;;;;;;5025624;28;20255;-74
2022/08/27 02:06:39;;;;;;;10.52;8.63;;;17.30;99.90;;;;;;5042626;28;20183;-73
2022/08/27 02:09:04;;;;;;;8.23;7.50;;;17.30;99.90;;;;;;5041666;28;20445;-72
2022/08/27 02:11:30;;;;;;;10.20;8.63;;;17.20;99.90;;;;;;5039703;28;20175;-73
2022/08/27 02:13:56;;;;;;;12.00;8.32;;;17.20;99.90;;;;;;5035998;28;20250;-73
2022/08/27 02:16:21;;;;;;;9.90;8.18;;;17.20;99.90;;;;;;5046952;28;20253;-73
2022/08/27 02:18:47;;;;;;;9.00;8.20;;;17.20;99.90;;;;;;5044728;28;20662;-72
2022/08/27 02:21:13;;;;;;;9.90;7.68;;;17.20;99.90;;;;;;5041377;28;20187;-72
2022/08/27 02:23:40;;;;;;;9.27;8.38;;;17.30;99.90;;;;;;5048015;28;20183;-73
2022/08/27 02:26:06;;;;;;;10.00;7.70;;;17.30;99.90;;;;;;5045664;28;20219;-72
2022/08/27 02:28:33;;;;;;;9.07;8.27;;;17.30;99.90;;;;;;5046757;28;20200;-73
2022/08/27 02:30:59;;;;;;;8.88;8.00;;;17.30;99.90;;;;;;5038693;28;20193;-73
2022/08/27 02:33:25;;;;;;;7.97;7.28;;;17.30;99.90;;;;;;5046532;28;20180;-73
2022/08/27 02:35:52;;;;;;;8.75;7.85;;;17.30;99.90;;;;;;5044471;28;20641;-73
2022/08/27 02:38:19;;;;;;;9.35;8.05;;;17.30;99.90;;;;;;5040355;28;20278;-73
2022/08/27 02:40:44;;;;;;;8.85;8.05;;;17.30;99.90;;;;;;5039382;28;20268;-73
2022/08/27 02:43:10;;;;;;;9.00;8.02;;;17.20;99.90;;;;;;5041082;28;20654;-73
2022/08/27 02:45:36;;;;;;;8.40;7.70;;;17.20;99.90;;;;;;5046158;28;20180;-73
2022/08/27 02:48:03;;;;;;;8.73;7.85;;;17.20;99.90;;;;;;5040461;28;20615;-71
2022/08/27 02:50:29;;;;;;;9.70;8.80;;;17.10;99.90;;;;;;5032793;28;20188;-71
2022/08/27 02:52:56;;;;;;;8.80;8.00;;;17.10;99.90;;;;;;5061598;28;20250;-72
2022/08/27 02:55:21;;;;;;;9.15;8.23;;;17.10;99.90;;;;;;5046581;28;20699;-71
2022/08/27 02:57:47;;;;;;;9.25;8.35;;;17.10;99.90;;;;;;5042470;28;20275;-72
2022/08/27 03:00:16;;;;;;;10.40;9.25;;;17.10;99.90;;;;;;5039929;28;20245;-72
2022/08/27 03:02:42;;;;;;;11.13;10.02;;;17.00;99.90;;;;;;5045396;28;20669;-72
2022/08/27 03:05:10;;;;;;;9.98;8.35;;;17.00;99.90;;;;;;5047171;28;20188;-72
2022/08/27 03:07:36;;;;;;;9.82;8.63;;;17.00;99.90;;;;;;5031594;28;20200;-73
2022/08/27 03:10:03;;;;;;;10.55;9.52;;;17.10;99.90;;;;;;5024666;28;20521;-72
2022/08/27 03:12:30;;;;;;;9.55;8.75;;;17.00;99.90;;;;;;5038103;28;20180;-74
2022/08/27 03:14:56;;;;;;;12.05;9.77;;;17.00;99.90;;;;;;5041997;28;20675;-75
2022/08/27 03:20:07;;;;;;;8.85;8.05;;;17.00;99.90;;;;;;5042625;28;20273;-74
2022/08/27 03:22:33;;;;;;;9.07;8.20;;;16.90;99.90;;;;;;5047707;28;20218;-74
2022/08/27 03:25:01;;;;;;;8.85;7.90;;;16.90;99.90;;;;;;5037191;28;20184;-73
2022/08/27 03:27:27;;;;;;;8.73;7.88;;;16.90;99.90;;;;;;5042200;28;20292;-73
2022/08/27 03:29:53;;;;;;;8.88;7.78;;;16.80;99.90;;;;;;5046578;28;20681;-73
2022/08/27 03:32:18;;;;;;;8.77;8.07;;;16.70;99.90;;;;;;5033385;28;20188;-74
2022/08/27 03:34:44;;;;;;;8.80;7.68;;;16.70;99.90;;;;;;5048923;28;20179;-73
2022/08/27 03:37:10;;;;;;;9.95;7.47;;;16.70;99.90;;;;;;5041516;28;20193;-74
2022/08/27 03:39:36;;;;;;;8.38;7.68;;;16.70;99.90;;;;;;5047029;28;20167;-73
2022/08/27 03:42:01;;;;;;;9.20;8.20;;;16.70;99.90;;;;;;5039055;28;20187;-75
2022/08/27 03:44:27;;;;;;;8.35;7.65;;;16.60;99.90;;;;;;5043195;28;20234;-73
2022/08/27 03:46:53;;;;;;;8.43;7.55;;;16.60;99.90;;;;;;5048351;28;20180;-73
2022/08/27 03:49:21;;;;;;;9.93;8.40;;;16.60;99.90;;;;;;5041456;28;20262;-73
2022/08/27 03:51:50;;;;;;;10.55;8.43;;;16.60;99.90;;;;;;5040745;28;20193;-73
2022/08/27 03:54:16;;;;;;;8.13;7.38;;;16.70;99.90;;;;;;5033847;28;20177;-73
2022/08/27 03:56:42;;;;;;;8.68;7.88;;;16.70;99.90;;;;;;5048567;28;20552;-74
2022/08/27 03:59:08;;;;;;;8.90;8.05;;;16.70;99.90;;;;;;5042219;28;20192;-73
2022/08/27 04:01:34;;;;;;;9.05;8.20;;;16.70;99.90;;;;;;5036121;28;20185;-73
2022/08/27 04:04:00;;;;;;;9.05;8.00;;;16.70;99.90;;;;;;5041364;28;20272;-72
2022/08/27 04:06:27;;;;;;;8.95;8.05;;;16.70;99.90;;;;;;5047757;28;20172;-73
2022/08/27 04:08:52;;;;;;;9.25;8.25;;;16.70;99.90;;;;;;5036122;28;20201;-73
2022/08/27 04:11:18;;;;;;;9.23;8.43;;;16.70;99.90;;;;;;5036663;28;20275;-74
2022/08/27 04:13:43;;;;;;;9.13;8.13;;;16.70;99.90;;;;;;5037519;28;20648;-73
2022/08/27 04:16:09;;;;;;;9.52;8.57;;;16.70;99.90;;;;;;5043565;28;20219;-73
2022/08/27 04:18:35;;;;;;;9.10;8.05;;;16.70;99.90;;;;;;5045120;28;20192;-73
2022/08/27 04:21:08;;;;;;;9.25;8.45;;;16.70;99.90;;;;;;5034684;28;20771;-73
2022/08/27 04:23:33;;;;;;;8.90;8.10;;;16.80;99.90;;;;;;5045959;28;20263;-72
2022/08/27 04:26:03;;;;;;;8.85;8.05;;;16.70;99.90;;;;;;5042596;28;20268;-73
2022/08/27 04:28:28;;;;;;;9.60;8.63;;;16.70;99.90;;;;;;5036847;28;20196;-72
2022/08/27 04:30:54;;;;;;;9.52;8.23;;;16.70;99.90;;;;;;5040554;28;20602;-74
2022/08/27 04:33:20;;;;;;;9.50;8.55;;;16.80;99.90;;;;;;5031724;28;20193;-72
2022/08/27 04:35:45;;;;;;;9.65;8.60;;;16.70;99.90;;;;;;5026999;28;20196;-73
2022/08/27 04:38:11;;;;;;;8.98;8.18;;;16.80;99.90;;;;;;5027017;28;20591;-73
2022/08/27 04:43:21;;;;;;;8.90;7.93;;;16.80;99.90;;;;;;5033630;28;20187;-73
2022/08/27 04:45:49;;;;;;;10.15;8.63;;;16.90;99.90;;;;;;5025957;28;20858;-73
2022/08/27 04:48:17;;;;;;;9.85;8.60;;;17.00;99.90;;;;;;5019065;28;20208;-73
2022/08/27 04:50:45;;;;;;;8.70;8.00;;;17.00;99.90;;;;;;5025374;28;20671;-73
2022/08/27 04:53:12;;;;;;;8.52;7.75;;;17.10;99.90;;;;;;5029483;28;20185;-70
2022/08/27 04:55:46;;;;;;;8.88;8.07;;;17.10;99.90;;;;;;5025020;28;20200;-80
2022/08/27 04:58:13;;;;;;;10.48;8.20;;;17.10;99.90;;;;;;5031773;28;20698;-77
2022/08/27 05:00:43;;;;;;;9.10;8.30;;;17.10;99.90;;;;;;5026764;28;20188;-80
2022/08/27 05:03:10;;;;;;;8.88;7.97;;;17.00;99.90;;;;;;5030514;28;20697;-78
2022/08/27 05:05:36;;;;;;;10.88;8.55;;;17.10;99.90;;;;;;5024880;28;20267;-79
2022/08/27 05:08:04;;;;;;;9.82;8.88;;;17.10;99.90;;;;;;5046888;28;20196;-78
2022/08/27 05:10:29;;;;;;;9.70;8.65;;;17.10;99.90;;;;;;5031075;28;20176;-78
2022/08/27 05:12:56;;;;;;;8.93;8.13;;;17.20;99.90;;;;;;5043464;28;20199;-78
2022/08/27 05:15:21;;;;;;;9.05;8.25;;;17.30;99.90;;;;;;5040612;28;20192;-80
2022/08/27 05:17:47;;;;;;;11.25;9.25;;;17.40;99.90;;;;;;5041573;28;20188;-80
2022/08/27 05:20:13;;;;;;;8.63;7.90;;;17.50;99.90;;;;;;5042417;28;20172;-78
2022/08/27 05:22:38;;;;;;;9.32;8.40;;;17.70;99.90;;;;;;5043149;28;20215;-82
2022/08/27 05:25:05;;;;;;;8.48;7.68;;;17.80;99.90;;;;;;5043112;28;20187;-76
2022/08/27 05:27:30;;;;;;;9.02;8.13;;;17.80;99.90;;;;;;5037357;28;20192;-79
2022/08/27 05:29:56;;;;;;;12.23;9.13;;;18.00;99.90;;;;;;5032087;28;20242;-77
2022/08/27 05:32:22;;;;;;;9.65;8.75;;;18.00;99.90;;;;;;5031137;28;20172;-79
2022/08/27 05:34:47;;;;;;;9.73;8.82;;;18.20;99.90;;;;;;5045160;28;20184;-80
2022/08/27 05:37:13;;;;;;;9.70;8.57;;;18.30;99.90;;;;;;5044266;28;20200;-81
2022/08/27 05:39:39;;;;;;;10.13;9.05;;;18.40;99.90;;;;;;5046096;28;20195;-81
2022/08/27 05:42:04;;;;;;;8.88;8.07;;;18.50;99.90;;;;;;5065459;28;20267;-81
2022/08/27 05:44:30;;;;;;;8.40;7.60;;;18.60;99.90;;;;;;5050696;28;20170;-80
2022/08/27 05:46:55;;;;;;;11.63;7.85;;;18.70;99.90;;;;;;5045893;28;20198;-80
2022/08/27 05:49:21;;;;;;;8.07;7.38;;;18.70;99.90;;;;;;5040988;28;20200;-81
2022/08/27 05:51:47;;;;;;;7.95;7.28;;;18.80;99.90;;;;;;5045718;28;20191;-80
2022/08/27 05:54:18;;;;;;;7.72;7.05;;;18.90;99.90;;;;;;5061781;28;20266;-79
2022/08/27 05:56:44;;;;;;;8.95;8.05;;;19.00;99.90;;;;;;5038807;28;20208;-80
2022/08/27 06:01:55;;;;;;;8.18;7.38;;;19.20;99.90;;;;;;5040479;28;20760;-81
2022/08/27 06:04:23;;;;;;;8.57;7.78;;;19.20;99.90;;;;;;5044788;28;20211;-81
2022/08/27 06:06:50;;;;;;;8.23;7.40;;;19.20;99.90;;;;;;5057454;28;20175;-80
2022/08/27 06:09:23;;;;;;;10.55;7.78;;;19.30;99.90;;;;;;5041736;28;20570;-82
2022/08/27 06:11:48;;;;;;;8.00;7.30;;;19.40;99.90;;;;;;5049941;28;20176;-77
2022/08/27 06:14:14;;;;;;;8.85;8.13;;;19.50;99.90;;;;;;5053529;28;20245;-75
2022/08/27 06:16:40;;;;;;;7.90;7.10;;;19.60;99.90;;;;;;5046856;28;20391;-75
2022/08/27 06:19:07;;;;;;;8.60;7.80;;;19.70;99.90;;;;;;5033955;28;20663;-75
2022/08/27 06:21:33;;;;;;;55.28;49.65;;;19.70;99.90;;;;;;5040715;28;20575;-75
2022/08/27 06:24:00;;;;;;;9.52;8.05;;;19.80;99.90;;;;;;5048387;28;20309;-75
2022/08/27 06:26:26;;;;;;;8.52;7.53;;;19.80;99.90;;;;;;5049505;28;20186;-75
2022/08/27 06:28:52;;;;;;;9.55;8.38;;;19.90;99.90;;;;;;5047034;28;20666;-75
2022/08/27 06:31:21;;;;;;;9.15;8.35;;;19.90;99.90;;;;;;5045446;28;20553;-74
2022/08/27 06:33:49;;;;;;;8.73;7.82;;;20.00;99.90;;;;;;5045895;28;20188;-74
2022/08/27 06:36:17;;;;;;;8.77;7.80;;;20.00;99.90;;;;;;5043432;28;20219;-76
2022/08/27 06:38:43;;;;;;;7.93;7.22;;;20.00;99.90;;;;;;5043775;28;20206;-75
2022/08/27 06:41:10;;;;;;;9.95;7.93;;;20.20;99.90;;;;;;5037957;28;20188;-76
2022/08/27 06:43:38;;;;;;;9.50;7.15;;;20.20;99.90;;;;;;5045291;28;20183;-74
2022/08/27 06:46:06;;;;;;;8.38;7.60;;;20.30;99.90;;;;;;5050939;28;20187;-74
2022/08/27 06:48:32;;;;;;;8.95;6.72;;;20.40;99.90;;;;;;5044541;28;20219;-74
2022/08/27 06:50:58;;;;;;;8.13;6.72;;;20.50;99.90;;;;;;5049490;28;20262;-74
2022/08/27 06:53:24;;;;;;;8.73;6.90;;;20.60;99.90;;;;;;5035391;28;20667;-75
2022/08/27 06:55:50;;;;;;;11.93;6.50;;;20.70;99.90;;;;;;5033021;28;20209;-74
2022/08/27 06:58:18;;;;;;;7.47;6.65;;;20.70;99.90;;;;;;5042906;28;20238;-74
2022/08/27 07:00:44;;;;;;;7.22;6.55;;;20.90;99.90;;;;;;5025198;28;20182;-74
2022/08/27 07:03:10;;;;;;;7.05;6.45;;;20.90;99.90;;;;;;5030000;28;20587;-74
2022/08/27 07:05:39;;;;;;;7.53;6.80;;;20.90;99.90;;;;;;5034797;28;20208;-73
2022/08/27 07:08:06;;;;;;;6.85;6.20;;;20.90;99.90;;;;;;5043519;28;20235;-77
2022/08/27 07:10:33;;;;;;;9.07;6.40;;;21.00;99.90;;;;;;5037409;28;20199;-74
2022/08/27 07:12:59;;;;;;;9.50;7.10;;;21.10;99.90;;;;;;5028168;28;20566;-73
2022/08/27 07:15:26;;;;;;;11.63;6.93;;;21.10;99.90;;;;;;5038679;28;20189;-72
2022/08/27 07:17:52;;;;;;;7.55;6.88;;;21.00;99.90;;;;;;5033624;28;20208;-74
2022/08/27 07:20:18;;;;;;;9.50;7.05;;;21.00;99.90;;;;;;5031091;28;20231;-74
2022/08/27 07:22:46;;;;;;;8.07;7.28;;;20.90;99.90;;;;;;5029979;28;20734;-73
2022/08/27 07:25:18;;;;;;;7.47;6.68;;;20.90;99.90;;;;;;5032115;28;20180;-74
2022/08/27 07:27:45;;;;;;;8.50;7.53;;;20.90;99.90;;;;;;5031186;28;20213;-74
2022/08/27 07:30:14;;;;;;;8.32;7.47;;;21.00;99.90;;;;;;5029625;28;20177;-73
2022/08/27 07:32:40;;;;;;;7.88;7.07;;;21.00;99.90;;;;;;5026816;28;20264;-73
2022/08/27 07:35:08;;;;;;;8.75;7.03;;;21.20;99.90;;;;;;5032573;28;20196;-74
2022/08/27 07:37:38;;;;;;;7.78;7.15;;;21.40;99.90;;;;;;5030437;28;20204;-75
2022/08/27 07:40:11;;;;;;;7.72;7.10;;;21.60;99.90;;;;;;5032405;28;20177;-74
2022/08/27 07:45:21;;;;;;;7.22;6.60;;;22.00;99.90;;;;;;5019935;28;20223;-74
2022/08/27 07:47:46;;;;;;;7.90;6.70;;;22.20;99.90;;;;;;5027189;28;20224;-74
2022/08/27 07:50:12;;;;;;;7.40;6.70;;;22.20;99.90;;;;;;5022871;28;20247;-75
2022/08/27 07:52:38;;;;;;;8.45;7.65;;;22.30;99.90;;;;;;5025326;28;20299;-76
2022/08/27 07:55:04;;;;;;;8.82;7.90;;;22.40;99.90;;;;;;5026581;28;20220;-76
2022/08/27 07:57:31;;;;;;;9.13;7.63;;;22.50;99.90;;;;;;5031654;28;20215;-77
2022/08/27 07:59:57;;;;;;;8.05;7.30;;;22.50;99.90;;;;;;5025817;28;20264;-77
2022/08/27 08:02:22;;;;;;;8.65;7.55;;;22.50;99.90;;;;;;5036995;28;20256;-78
2022/08/27 08:04:48;;;;;;;8.88;7.30;;;22.70;99.90;;;;;;5030811;28;20177;-76
2022/08/27 08:07:13;;;;;;;8.00;6.90;;;22.90;99.90;;;;;;5037565;28;20603;-76
2022/08/27 08:09:39;;;;;;;7.80;7.00;;;23.10;99.90;;;;;;5044217;28;20176;-76
2022/08/27 08:12:06;;;;;;;8.35;7.47;;;23.40;99.90;;;;;;5035249;28;20541;-76
2022/08/27 08:14:32;;;;;;;8.60;7.68;;;23.60;99.90;;;;;;5037321;28;20195;-73
2022/08/27 08:17:00;;;;;;;8.60;7.40;;;23.80;99.90;;;;;;5042100;28;20207;-71
2022/08/27 08:19:26;;;;;;;8.68;7.78;;;23.90;99.90;;;;;;5037947;28;20311;-71
2022/08/27 08:21:52;;;;;;;8.65;7.38;;;23.90;99.90;;;;;;5025138;28;20176;-71
2022/08/27 08:24:18;;;;;;;9.40;8.07;;;24.00;99.90;;;;;;5017709;28;20177;-72
2022/08/27 08:26:43;;;;;;;8.18;7.30;;;24.20;99.90;;;;;;5022900;28;20203;-72
2022/08/27 08:29:09;;;;;;;8.63;7.72;;;24.30;99.90;;;;;;5023589;28;20220;-72
2022/08/27 08:31:35;;;;;;;9.23;8.27;;;24.40;99.90;;;;;;5025571;28;20561;-72
2022/08/27 08:34:01;;;;;;;8.15;7.45;;;24.50;99.90;;;;;;5034004;28;20180;-72
2022/08/27 08:36:27;;;;;;;9.40;8.43;;;24.70;99.90;;;;;;5039673;28;20196;-71
2022/08/27 08:38:53;;;;;;;8.23;7.40;;;24.70;99.90;;;;;;5033893;28;20204;-74
2022/08/27 08:41:24;;;;;;;8.48;7.53;;;24.80;99.90;;;;;;5042590;28;20697;-71
2022/08/27 08:43:50;;;;;;;8.55;7.75;;;24.70;99.90;;;;;;5032343;28;20176;-72
2022/08/27 08:46:47;;;;;;;9.65;8.65;;;24.70;99.90;;;;;;5039161;28;20175;-71
2022/08/27 08:49:53;;;;;;;9.10;8.20;;;24.90;99.90;;;;;;5040162;28;20200;-71
2022/08/27 08:52:19;;;;;;;8.27;7.25;;;25.00;99.90;;;;;;5034878;28;20271;-74
2022/08/27 08:54:45;;;;;;;7.57;6.97;;;25.10;99.90;;;;;;5042295;28;20203;-72
2022/08/27 08:57:21;;;;;;;8.85;8.02;;;25.20;99.90;;;;;;5032329;28;20849;-72
2022/08/27 09:00:08;;;;;;;8.57;7.78;;;25.50;99.90;;;;;;5043396;28;20186;-74
2022/08/27 09:02:34;;;;;;;9.60;8.50;;;25.70;99.90;;;;;;5039302;28;20235;-72
2022/08/27 09:05:04;;;;;;;8.75;8.02;;;26.00;99.90;;;;;;5041500;28;20174;-74
2022/08/27 09:07:55;;;;;;;8.82;7.95;;;26.40;99.90;;;;;;5038204;28;20202;-73
2022/08/27 09:10:26;;;;;;;9.32;8.32;;;27.00;99.90;;;;;;5038138;28;20200;-72
2022/08/27 09:12:57;;;;;;;8.30;7.60;;;28.10;99.90;;;;;;5027802;28;20569;-71
2022/08/27 09:15:28;;;;;;;7.68;6.97;;;29.60;99.90;;;;;;5024046;28;20184;-71
2022/08/27 09:18:23;;;;;;;8.70;7.88;;;30.90;99.90;;;;;;5027789;28;20207;-72
2022/08/27 09:20:54;;;;;;;8.70;7.80;;;31.50;99.20;;;;;;5030391;28;20188;-72
2022/08/27 09:23:32;;;;;;;9.38;7.93;;;31.70;97.60;;;;;;5026268;28;20175;-72
2022/08/27 09:25:57;;;;;;;7.97;7.28;;;31.60;96.80;;;;;;5041298;28;20182;-72
2022/08/27 09:31:20;;;;;;;9.73;7.60;;;31.00;95.80;;;;;;5036631;28;20252;-72
2022/08/27 09:33:46;;;;;;;8.60;7.85;;;31.30;95.40;;;;;;5045367;28;20175;-72
2022/08/27 09:36:16;;;;;;;9.77;8.52;;;32.00;93.90;;;;;;5043238;28;20240;-72
2022/08/27 09:38:56;;;;;;;8.25;7.65;;;32.00;92.90;;;;;;5023604;28;20207;-73
2022/08/27 09:41:30;;;;;;;9.60;7.78;;;31.70;92.50;;;;;;5020070;28;20251;-72
2022/08/27 09:44:09;;;;;;;8.75;7.95;;;32.30;91.70;;;;;;5024063;28;20652;-71
2022/08/27 09:46:34;;;;;;;8.02;7.32;;;31.90;91.20;;;;;;5024079;28;20187;-73
2022/08/27 09:49:14;;;;;;;8.25;7.30;;;31.80;91.00;;;;;;5032068;28;20208;-70
2022/08/27 09:51:42;;;;;;;10.55;7.22;;;31.40;93.10;;;;;;5033043;28;20211;-70
2022/08/27 09:54:09;;;;;;;8.80;7.78;;;31.30;92.70;;;;;;5037028;28;20263;-70
2022/08/27 09:56:36;;;;;;;7.45;6.70;;;31.20;92.50;;;;;;5036898;28;20727;-70
2022/08/27 09:59:22;;;;;;;10.18;6.82;;;31.70;92.60;;;;;;5043557;28;20199;-70
2022/08/27 10:02:03;;;;;;;7.30;6.65;;;34.50;86.70;;;;;;5033934;28;20168;-68
2022/08/27 10:04:46;;;;;;;8.20;6.78;;;36.70;76.10;;;;;;5034113;28;20168;-68
2022/08/27 10:07:30;;;;;;;8.77;6.47;;;36.50;72.40;;;;;;5025158;28;20262;-68
2022/08/27 10:10:19;;;;;;;7.20;6.50;;;35.40;72.70;;;;;;5026142;28;20184;-68
2022/08/27 10:12:54;;;;;;;6.70;6.10;;;34.50;75.00;;;;;;5022181;28;20656;-70
2022/08/27 10:15:22;;;;;;;8.40;5.22;;;34.50;73.90;;;;;;5026732;28;20183;-69
2022/08/27 10:18:01;;;;;;;7.93;7.07;;;34.10;75.60;;;;;;5027457;28;20581;-70
2022/08/27 10:20:35;;;;;;;8.80;7.95;;;32.40;99.90;;;;;;5025208;28;20183;-67
2022/08/27 10:23:16;;;;;;;10.20;9.30;;;29.60;99.90;;;;;;5026908;28;20226;-70
2022/08/27 10:26:08;;;;;;;11.43;10.43;;;27.60;99.90;;;;;;5024541;28;20805;-74
2022/08/27 10:28:39;;;;;;;14.70;12.95;;;25.90;99.90;;;;;;5028716;28;20205;-72
2022/08/27 10:31:25;;;;;;;15.05;13.32;;;24.50;99.90;;;;;;5032964;28;20259;-73
2022/08/27 10:34:21;;;;;;;16.45;14.75;;;23.40;99.90;;;;;;5045104;28;20187;-74
2022/08/27 10:36:56;;;;;;;20.38;18.27;;;22.60;99.90;;;;;;5035511;28;20222;-73
2022/08/27 10:39:34;;;;;;;21.70;19.27;;;21.90;99.90;;;;;;5027946;28;20413;-73
2022/08/27 10:42:17;;;;;;;25.77;21.90;;;21.30;99.90;;;;;;5026376;28;20272;-73
2022/08/27 10:44:50;;;;;;;23.92;19.42;;;21.00;99.90;;;;;;5039649;28;20172;-73
2022/08/27 10:47:27;;;;;;;17.02;15.25;;;20.80;99.90;;;;;;5039341;28;20188;-72
2022/08/27 10:50:07;;;;;;;17.27;13.65;;;20.50;99.90;;;;;;5039226;28;20188;-72
2022/08/27 10:52:55;;;;;;;24.98;15.25;;;20.30;99.90;;;;;;5030781;28;20204;-72
2022/08/27 10:55:51;;;;;;;18.55;14.70;;;20.10;99.90;;;;;;5034528;28;20659;-73
2022/08/27 10:58:25;;;;;;;16.27;14.57;;;20.00;99.90;;;;;;5030015;28;20204;-72
2022/08/27 11:00:50;;;;;;;20.92;15.77;;;20.10;99.90;;;;;;5027790;28;20187;-73
2022/08/27 11:03:34;;;;;;;15.02;13.63;;;20.40;99.90;;;;;;5039495;28;20184;-73
2022/08/27 11:06:09;;;;;;;14.98;13.55;;;20.60;99.90;;;;;;5028933;28;20194;-73
2022/08/27 11:08:48;;;;;;;18.48;15.20;;;20.80;99.90;;;;;;5046148;28;20281;-72
2022/08/27 11:11:25;;;;;;;17.30;15.60;;;20.60;99.90;;;;;;5025364;28;20193;-72
2022/08/27 11:13:52;;;;;;;14.98;13.52;;;20.30;99.90;;;;;;5033469;28;20202;-74
2022/08/27 11:16:24;;;;;;;20.25;16.73;;;20.20;99.90;;;;;;5033529;28;20282;-75
2022/08/27 11:19:10;;;;;;;17.00;14.95;;;20.10;99.90;;;;;;5028531;28;20200;-73
2022/08/27 11:21:42;;;;;;;22.15;15.20;;;20.00;99.90;;;;;;5032559;28;20682;-74
2022/08/27 11:24:28;;;;;;;16.33;14.73;;;20.00;99.90;;;;;;5038134;28;20268;-76
2022/08/27 11:27:01;;;;;;;16.70;14.52;;;20.00;99.90;;;;;;5030814;28;20279;-80
2022/08/27 11:29:32;;;;;;;15.38;13.80;;;20.00;99.90;;;;;;5033736;28;20206;-76
2022/08/27 11:32:24;;;;;;;16.58;14.82;;;20.00;99.90;;;;;;5050501;28;20180;-78
2022/08/27 11:34:58;;;;;;;16.33;14.45;;;20.00;99.90;;;;;;5041979;28;20611;-79
2022/08/27 11:37:46;;;;;;;15.20;13.60;;;20.10;99.90;;;;;;5028099;28;20299;-78
2022/08/27 11:40:48;;;;;;;16.42;14.43;;;20.20;99.90;;;;;;5032546;28;20172;-77
2022/08/27 11:43:19;;;;;;;17.58;15.43;;;20.40;99.90;;;;;;5030371;28;20219;-77
2022/08/27 11:45:58;;;;;;;15.82;14.23;;;20.70;99.90;;;;;;5047343;28;20659;-78
2022/08/27 11:48:33;;;;;;;14.93;12.45;;;20.90;99.90;;;;;;5043519;28;20282;-77
2022/08/27 11:51:01;;;;;;;16.13;13.32;;;21.10;99.90;;;;;;5040192;28;20183;-78
2022/08/27 11:53:34;;;;;;;13.82;11.07;;;21.20;99.90;;;;;;5042837;28;20204;-77
2022/08/27 11:56:19;;;;;;;10.45;9.55;;;21.40;99.90;;;;;;5043251;28;20232;-79
2022/08/27 11:58:45;;;;;;;9.85;9.05;;;21.30;99.90;;;;;;5033257;28;20275;-77
2022/08/27 12:01:22;;;;;;;10.63;9.20;;;21.00;99.90;;;;;;5029398;28;20203;-77
2022/08/27 12:04:05;;;;;;;7.93;7.32;;;20.90;99.90;;;;;;5037907;28;20180;-77
2022/08/27 12:06:42;;;;;;;11.55;10.45;;;20.80;99.90;;;;;;5022546;28;20643;-78
2022/08/27 12:09:19;;;;;;;12.02;10.95;;;20.80;99.90;;;;;;5031384;28;20237;-77
2022/08/27 12:12:10;;;;;;;12.25;11.07;;;20.60;99.90;;;;;;5032917;28;20631;-76
2022/08/27 12:14:46;;;;;;;11.48;10.30;;;20.50;99.90;;;;;;5033543;28;20590;-77
2022/08/27 12:17:21;;;;;;;14.75;10.90;;;20.50;99.90;;;;;;5030692;28;20211;-77
2022/08/27 12:20:17;;;;;;;10.48;9.55;;;20.50;99.90;;;;;;5031742;28;20262;-79
2022/08/27 12:25:33;;;;;;;13.25;11.85;;;20.60;99.90;;;;;;5039190;28;20234;-78
2022/08/27 12:28:04;;;;;;;10.93;9.80;;;20.50;99.90;;;;;;5036737;28;20196;-78
2022/08/27 12:30:50;;;;;;;9.30;8.30;;;20.40;99.90;;;;;;5040887;28;20177;-80
2022/08/27 12:33:40;;;;;;;9.27;8.40;;;20.40;99.90;;;;;;5041862;28;20176;-80
2022/08/27 12:36:15;;;;;;;10.63;9.73;;;20.40;99.90;;;;;;5034562;28;20698;-79
2022/08/27 12:38:48;;;;;;;11.10;10.10;;;20.70;99.90;;;;;;5040843;28;20204;-78
2022/08/27 12:41:36;;;;;;;12.05;10.77;;;20.80;99.90;;;;;;5045009;28;20526;-79
2022/08/27 12:44:07;;;;;;;11.98;10.85;;;21.00;99.90;;;;;;5041158;28;20223;-79
2022/08/27 12:46:56;;;;;;;14.27;11.80;;;21.20;99.90;;;;;;5041734;28;20180;-79
2022/08/27 12:49:26;;;;;;;11.82;10.73;;;21.50;99.90;;;;;;5034483;28;20208;-78
2022/08/27 12:51:53;;;;;;;11.70;10.63;;;22.10;99.90;;;;;;5040914;28;20181;-78
2022/08/27 12:54:25;;;;;;;10.90;9.88;;;22.70;99.90;;;;;;5045156;28;20184;-77
2022/08/27 12:57:07;;;;;;;8.95;8.13;;;23.80;99.90;;;;;;5037650;28;20258;-74
2022/08/27 12:59:45;;;;;;;7.55;6.85;;;24.60;99.90;;;;;;5038521;28;20616;-77
2022/08/27 13:02:11;;;;;;;7.28;6.78;;;25.50;99.90;;;;;;5028630;28;20211;-75
2022/08/27 13:04:39;;;;;;;7.60;7.00;;;26.30;99.90;;;;;;5020859;28;20209;-75
2022/08/27 13:07:06;;;;;;;7.95;7.18;;;27.10;99.90;;;;;;5024562;28;20192;-75
2022/08/27 13:09:34;;;;;;;7.63;6.95;;;27.40;99.90;;;;;;5021553;28;20594;-74
2022/08/27 13:12:03;;;;;;;8.52;7.72;;;27.70;99.90;;;;;;5027144;28;20587;-75
2022/08/27 13:14:37;;;;;;;9.13;8.30;;;27.60;99.90;;;;;;5027629;28;20276;-75